sensor_id;sensor_type;location;lat;lon;timestamp;pressure;altitude;pressure_sealevel;temperature;humidity
47742;BME280;33504;52.066;6.096;2023-05-09T00:00:53;101699.15;;;19.10;49.93
47742;BME280;33504;52.066;6.096;2023-05-09T00:03:20;101697.39;;;19.07;49.93
47742;BME280;33504;52.066;6.096;2023-05-09T00:05:47;101699.37;;;19.01;49.99
47742;BME280;33504;52.066;6.096;2023-05-09T00:08:14;101699.86;;;18.97;49.94
47742;BME280;33504;52.066;6.096;2023-05-09T00:10:41;101698.98;;;18.93;50.02
47742;BME280;33504;52.066;6.096;2023-05-09T00:13:08;101697.50;;;18.89;50.02
47742;BME280;33504;52.066;6.096;2023-05-09T00:15:35;101698.57;;;19.13;50.08
47742;BME280;33504;52.066;6.096;2023-05-09T00:18:02;101698.89;;;19.12;50.28
47742;BME280;33504;52.066;6.096;2023-05-09T00:20:29;101698.91;;;18.87;50.40
47742;BME280;33504;52.066;6.096;2023-05-09T00:22:57;101696.82;;;18.86;50.35
47742;BME280;33504;52.066;6.096;2023-05-09T00:25:24;101692.78;;;19.11;50.43
47742;BME280;33504;52.066;6.096;2023-05-09T00:27:51;101690.66;;;19.07;50.55
47742;BME280;33504;52.066;6.096;2023-05-09T00:30:18;101689.71;;;19.09;50.66
47742;BME280;33504;52.066;6.096;2023-05-09T00:32:45;101685.03;;;19.08;50.65
47742;BME280;33504;52.066;6.096;2023-05-09T00:35:12;101682.03;;;19.06;50.61
47742;BME280;33504;52.066;6.096;2023-05-09T00:37:39;101675.54;;;18.70;50.51
47742;BME280;33504;52.066;6.096;2023-05-09T00:40:07;101669.26;;;18.68;50.67
47742;BME280;33504;52.066;6.096;2023-05-09T00:42:34;101665.84;;;18.70;50.72
47742;BME280;33504;52.066;6.096;2023-05-09T00:45:01;101662.50;;;19.01;50.73
47742;BME280;33504;52.066;6.096;2023-05-09T00:47:28;101661.59;;;19.03;50.72
47742;BME280;33504;52.066;6.096;2023-05-09T00:49:56;101658.93;;;19.04;50.69
47742;BME280;33504;52.066;6.096;2023-05-09T00:52:24;101655.59;;;19.04;50.56
47742;BME280;33504;52.066;6.096;2023-05-09T00:54:52;101653.04;;;19.08;50.50
47742;BME280;33504;52.066;6.096;2023-05-09T00:57:19;101648.70;;;19.08;50.57
47742;BME280;33504;52.066;6.096;2023-05-09T00:59:47;101646.27;;;19.08;50.42
47742;BME280;33504;52.066;6.096;2023-05-09T01:02:15;101642.54;;;18.80;50.43
47742;BME280;33504;52.066;6.096;2023-05-09T01:04:43;101638.24;;;18.80;50.38
47742;BME280;33504;52.066;6.096;2023-05-09T01:07:18;101630.88;;;19.05;50.42
47742;BME280;33504;52.066;6.096;2023-05-09T01:09:55;101626.37;;;19.02;50.42
47742;BME280;33504;52.066;6.096;2023-05-09T01:12:33;101629.04;;;18.97;50.42
47742;BME280;33504;52.066;6.096;2023-05-09T01:15:07;101630.00;;;18.96;50.52
47742;BME280;33504;52.066;6.096;2023-05-09T01:17:46;101629.31;;;18.65;50.51
47742;BME280;33504;52.066;6.096;2023-05-09T01:20:22;101627.92;;;19.14;50.56
47742;BME280;33504;52.066;6.096;2023-05-09T01:23:09;101627.19;;;18.89;50.76
47742;BME280;33504;52.066;6.096;2023-05-09T01:25:50;101627.39;;;18.88;50.77
47742;BME280;33504;52.066;6.096;2023-05-09T01:28:34;101620.60;;;18.86;50.83
47742;BME280;33504;52.066;6.096;2023-05-09T01:31:03;101613.53;;;18.85;50.74
47742;BME280;33504;52.066;6.096;2023-05-09T01:33:33;101609.68;;;18.61;50.60
47742;BME280;33504;52.066;6.096;2023-05-09T01:36:05;101605.31;;;18.87;50.47
47742;BME280;33504;52.066;6.096;2023-05-09T01:38:36;101603.22;;;18.62;50.43
47742;BME280;33504;52.066;6.096;2023-05-09T01:41:05;101605.65;;;18.90;50.32
47742;BME280;33504;52.066;6.096;2023-05-09T01:43:37;101605.34;;;18.60;50.45
47742;BME280;33504;52.066;6.096;2023-05-09T01:46:04;101598.75;;;18.89;50.50
47742;BME280;33504;52.066;6.096;2023-05-09T01:48:33;101596.67;;;18.87;50.52
47742;BME280;33504;52.066;6.096;2023-05-09T01:51:03;101592.22;;;18.86;50.38
47742;BME280;33504;52.066;6.096;2023-05-09T01:53:31;101594.08;;;18.57;50.41
47742;BME280;33504;52.066;6.096;2023-05-09T01:56:01;101598.60;;;18.81;50.37
47742;BME280;33504;52.066;6.096;2023-05-09T01:58:31;101597.15;;;18.79;50.53
47742;BME280;33504;52.066;6.096;2023-05-09T02:01:00;101596.63;;;18.47;50.54
47742;BME280;33504;52.066;6.096;2023-05-09T02:03:29;101600.86;;;18.75;50.60
47742;BME280;33504;52.066;6.096;2023-05-09T02:05:57;101601.28;;;18.75;50.71
47742;BME280;33504;52.066;6.096;2023-05-09T02:08:24;101599.48;;;18.77;50.80
47742;BME280;33504;52.066;6.096;2023-05-09T02:10:52;101596.62;;;18.72;50.81
47742;BME280;33504;52.066;6.096;2023-05-09T02:13:19;101591.13;;;18.73;50.80
47742;BME280;33504;52.066;6.096;2023-05-09T02:15:46;101587.35;;;18.78;50.77
47742;BME280;33504;52.066;6.096;2023-05-09T02:18:13;101584.35;;;18.69;50.54
47742;BME280;33504;52.066;6.096;2023-05-09T02:20:40;101589.72;;;18.47;50.55
47742;BME280;33504;52.066;6.096;2023-05-09T02:23:07;101584.70;;;18.66;50.52
47742;BME280;33504;52.066;6.096;2023-05-09T02:25:35;101586.32;;;18.59;50.41
47742;BME280;33504;52.066;6.096;2023-05-09T02:28:03;101581.67;;;18.61;50.38
47742;BME280;33504;52.066;6.096;2023-05-09T02:30:35;101581.47;;;18.62;50.35
47742;BME280;33504;52.066;6.096;2023-05-09T02:33:06;101576.89;;;18.38;50.20
47742;BME280;33504;52.066;6.096;2023-05-09T02:35:35;101571.08;;;18.39;50.07
47742;BME280;33504;52.066;6.096;2023-05-09T02:38:02;101563.53;;;18.64;50.14
47742;BME280;33504;52.066;6.096;2023-05-09T02:40:29;101561.17;;;18.64;50.20
47742;BME280;33504;52.066;6.096;2023-05-09T02:42:56;101556.50;;;18.64;50.18
47742;BME280;33504;52.066;6.096;2023-05-09T02:45:24;101554.79;;;18.62;50.23
47742;BME280;33504;52.066;6.096;2023-05-09T02:47:50;101556.65;;;18.82;50.31
47742;BME280;33504;52.066;6.096;2023-05-09T02:50:18;101553.59;;;18.33;50.37
47742;BME280;33504;52.066;6.096;2023-05-09T02:52:45;101550.12;;;18.56;50.45
47742;BME280;33504;52.066;6.096;2023-05-09T02:55:12;101551.21;;;18.45;50.50
47742;BME280;33504;52.066;6.096;2023-05-09T02:57:40;101547.98;;;18.36;50.74
47742;BME280;33504;52.066;6.096;2023-05-09T03:00:07;101545.20;;;18.32;50.75
47742;BME280;33504;52.066;6.096;2023-05-09T03:02:35;101544.00;;;18.32;50.80
47742;BME280;33504;52.066;6.096;2023-05-09T03:05:03;101545.44;;;18.32;50.86
47742;BME280;33504;52.066;6.096;2023-05-09T03:07:30;101544.75;;;18.27;50.90
47742;BME280;33504;52.066;6.096;2023-05-09T03:09:58;101540.45;;;18.21;50.96
47742;BME280;33504;52.066;6.096;2023-05-09T03:12:25;101539.92;;;18.45;50.99
47742;BME280;33504;52.066;6.096;2023-05-09T03:14:52;101537.58;;;18.49;50.93
47742;BME280;33504;52.066;6.096;2023-05-09T03:17:20;101533.83;;;18.24;51.04
47742;BME280;33504;52.066;6.096;2023-05-09T03:19:47;101532.56;;;18.31;50.99
47742;BME280;33504;52.066;6.096;2023-05-09T03:22:14;101527.29;;;18.34;50.93
47742;BME280;33504;52.066;6.096;2023-05-09T03:24:41;101524.10;;;18.57;50.87
47742;BME280;33504;52.066;6.096;2023-05-09T03:27:07;101521.56;;;18.37;50.95
47742;BME280;33504;52.066;6.096;2023-05-09T03:29:34;101523.50;;;18.34;50.96
47742;BME280;33504;52.066;6.096;2023-05-09T03:32:01;101523.26;;;18.26;51.22
47742;BME280;33504;52.066;6.096;2023-05-09T03:34:28;101518.99;;;18.23;51.33
47742;BME280;33504;52.066;6.096;2023-05-09T03:36:54;101513.05;;;18.26;51.27
47742;BME280;33504;52.066;6.096;2023-05-09T03:39:21;101509.43;;;18.31;51.32
47742;BME280;33504;52.066;6.096;2023-05-09T03:41:48;101510.05;;;18.36;51.27
47742;BME280;33504;52.066;6.096;2023-05-09T03:44:15;101510.31;;;18.39;51.27
47742;BME280;33504;52.066;6.096;2023-05-09T03:46:42;101507.59;;;18.30;51.31
47742;BME280;33504;52.066;6.096;2023-05-09T03:49:09;101509.36;;;18.60;51.18
47742;BME280;33504;52.066;6.096;2023-05-09T03:51:36;101511.99;;;18.39;51.24
47742;BME280;33504;52.066;6.096;2023-05-09T03:54:03;101512.50;;;18.42;51.22
47742;BME280;33504;52.066;6.096;2023-05-09T03:56:30;101509.10;;;18.44;51.17
47742;BME280;33504;52.066;6.096;2023-05-09T03:58:58;101508.51;;;18.46;51.11
47742;BME280;33504;52.066;6.096;2023-05-09T04:01:25;101505.06;;;18.49;51.16
47742;BME280;33504;52.066;6.096;2023-05-09T04:03:52;101505.45;;;18.52;51.19
47742;BME280;33504;52.066;6.096;2023-05-09T04:06:19;101503.91;;;18.51;51.20
47742;BME280;33504;52.066;6.096;2023-05-09T04:08:47;101502.98;;;18.51;51.17
47742;BME280;33504;52.066;6.096;2023-05-09T04:11:13;101496.57;;;18.23;51.05
47742;BME280;33504;52.066;6.096;2023-05-09T04:13:40;101490.79;;;18.35;51.14
47742;BME280;33504;52.066;6.096;2023-05-09T04:16:07;101483.84;;;18.27;51.03
47742;BME280;33504;52.066;6.096;2023-05-09T04:18:34;101483.55;;;18.26;51.14
47742;BME280;33504;52.066;6.096;2023-05-09T04:21:01;101483.01;;;18.30;51.07
47742;BME280;33504;52.066;6.096;2023-05-09T04:23:28;101481.54;;;18.34;51.11
47742;BME280;33504;52.066;6.096;2023-05-09T04:25:55;101480.18;;;18.33;51.09
47742;BME280;33504;52.066;6.096;2023-05-09T04:28:23;101480.39;;;18.27;51.08
47742;BME280;33504;52.066;6.096;2023-05-09T04:30:50;101480.78;;;18.11;51.08
47742;BME280;33504;52.066;6.096;2023-05-09T04:33:16;101477.99;;;18.35;50.98
47742;BME280;33504;52.066;6.096;2023-05-09T04:35:43;101479.35;;;18.09;51.25
47742;BME280;33504;52.066;6.096;2023-05-09T04:38:10;101479.57;;;18.44;51.27
47742;BME280;33504;52.066;6.096;2023-05-09T04:40:37;101482.09;;;18.22;50.94
47742;BME280;33504;52.066;6.096;2023-05-09T04:43:04;101481.69;;;18.21;50.96
47742;BME280;33504;52.066;6.096;2023-05-09T04:45:32;101485.78;;;17.85;51.50
47742;BME280;33504;52.066;6.096;2023-05-09T04:47:59;101482.29;;;18.14;51.39
47742;BME280;33504;52.066;6.096;2023-05-09T04:50:26;101483.82;;;17.85;51.66
47742;BME280;33504;52.066;6.096;2023-05-09T04:52:54;101479.82;;;18.14;51.50
47742;BME280;33504;52.066;6.096;2023-05-09T04:55:21;101476.73;;;17.91;51.55
47742;BME280;33504;52.066;6.096;2023-05-09T04:57:48;101472.63;;;17.76;51.78
47742;BME280;33504;52.066;6.096;2023-05-09T05:00:16;101467.02;;;17.55;52.14
47742;BME280;33504;52.066;6.096;2023-05-09T05:02:43;101467.26;;;17.58;51.94
47742;BME280;33504;52.066;6.096;2023-05-09T05:05:10;101463.07;;;17.58;51.74
47742;BME280;33504;52.066;6.096;2023-05-09T05:07:37;101462.97;;;17.56;51.92
47742;BME280;33504;52.066;6.096;2023-05-09T05:10:05;101462.52;;;17.68;51.53
47742;BME280;33504;52.066;6.096;2023-05-09T05:12:32;101466.05;;;17.72;51.50
47742;BME280;33504;52.066;6.096;2023-05-09T05:14:59;101462.32;;;17.68;51.55
47742;BME280;33504;52.066;6.096;2023-05-09T05:17:26;101458.25;;;17.93;51.43
47742;BME280;33504;52.066;6.096;2023-05-09T05:19:53;101453.31;;;17.36;51.65
47742;BME280;33504;52.066;6.096;2023-05-09T05:22:20;101448.87;;;17.77;51.19
47742;BME280;33504;52.066;6.096;2023-05-09T05:24:47;101444.05;;;17.33;52.02
47742;BME280;33504;52.066;6.096;2023-05-09T05:27:14;101445.13;;;17.77;51.76
47742;BME280;33504;52.066;6.096;2023-05-09T05:29:42;101438.90;;;17.77;51.49
47742;BME280;33504;52.066;6.096;2023-05-09T05:32:09;101431.99;;;17.26;51.83
47742;BME280;33504;52.066;6.096;2023-05-09T05:34:36;101431.64;;;17.68;51.95
47742;BME280;33504;52.066;6.096;2023-05-09T05:37:04;101431.25;;;17.71;51.46
47742;BME280;33504;52.066;6.096;2023-05-09T05:39:30;101431.04;;;17.49;52.19
47742;BME280;33504;52.066;6.096;2023-05-09T05:41:58;101433.85;;;17.73;51.71
47742;BME280;33504;52.066;6.096;2023-05-09T05:44:24;101431.83;;;17.54;51.79
47742;BME280;33504;52.066;6.096;2023-05-09T05:46:52;101423.65;;;17.51;51.23
47742;BME280;33504;52.066;6.096;2023-05-09T05:49:19;101422.35;;;17.95;51.19
47742;BME280;33504;52.066;6.096;2023-05-09T05:51:46;101421.33;;;17.64;51.18
47742;BME280;33504;52.066;6.096;2023-05-09T05:54:13;101418.98;;;17.78;50.96
47742;BME280;33504;52.066;6.096;2023-05-09T05:56:40;101424.87;;;17.74;52.00
47742;BME280;33504;52.066;6.096;2023-05-09T05:59:07;101410.62;;;17.84;51.44
47742;BME280;33504;52.066;6.096;2023-05-09T06:01:34;101407.53;;;17.07;52.09
47742;BME280;33504;52.066;6.096;2023-05-09T06:04:01;101401.03;;;17.67;52.14
47742;BME280;33504;52.066;6.096;2023-05-09T06:06:28;101405.29;;;17.33;52.19
47742;BME280;33504;52.066;6.096;2023-05-09T06:08:55;101396.77;;;17.73;52.07
47742;BME280;33504;52.066;6.096;2023-05-09T06:11:22;101390.20;;;17.80;51.85
47742;BME280;33504;52.066;6.096;2023-05-09T06:13:49;101386.81;;;17.38;51.80
47742;BME280;33504;52.066;6.096;2023-05-09T06:16:16;101383.88;;;17.76;51.25
47742;BME280;33504;52.066;6.096;2023-05-09T06:18:43;101382.99;;;18.03;51.17
47742;BME280;33504;52.066;6.096;2023-05-09T06:21:11;101378.22;;;18.03;51.40
47742;BME280;33504;52.066;6.096;2023-05-09T06:23:38;101375.04;;;17.13;51.63
47742;BME280;33504;52.066;6.096;2023-05-09T06:26:05;101371.60;;;17.72;51.27
47742;BME280;33504;52.066;6.096;2023-05-09T06:28:32;101375.66;;;17.69;51.39
47742;BME280;33504;52.066;6.096;2023-05-09T06:30:59;101372.32;;;17.22;51.92
47742;BME280;33504;52.066;6.096;2023-05-09T06:33:26;101376.79;;;17.22;51.93
47742;BME280;33504;52.066;6.096;2023-05-09T06:35:53;101372.83;;;17.97;50.93
47742;BME280;33504;52.066;6.096;2023-05-09T06:38:20;101369.00;;;18.00;51.49
47742;BME280;33504;52.066;6.096;2023-05-09T06:40:47;101364.81;;;17.85;50.67
47742;BME280;33504;52.066;6.096;2023-05-09T06:43:15;101358.34;;;18.14;50.66
47742;BME280;33504;52.066;6.096;2023-05-09T06:45:42;101351.35;;;18.22;50.39
47742;BME280;33504;52.066;6.096;2023-05-09T06:48:09;101348.68;;;18.13;50.29
47742;BME280;33504;52.066;6.096;2023-05-09T06:50:36;101349.79;;;18.65;50.06
47742;BME280;33504;52.066;6.096;2023-05-09T06:53:03;101349.51;;;17.70;50.73
47742;BME280;33504;52.066;6.096;2023-05-09T06:55:31;101344.55;;;18.18;50.24
47742;BME280;33504;52.066;6.096;2023-05-09T06:57:57;101340.00;;;18.14;49.77
47742;BME280;33504;52.066;6.096;2023-05-09T07:00:25;101337.33;;;18.44;49.27
47742;BME280;33504;52.066;6.096;2023-05-09T07:02:51;101331.97;;;18.24;49.62
47742;BME280;33504;52.066;6.096;2023-05-09T07:05:18;101332.17;;;18.02;49.78
47742;BME280;33504;52.066;6.096;2023-05-09T07:07:45;101327.41;;;18.04;49.78
47742;BME280;33504;52.066;6.096;2023-05-09T07:10:12;101325.72;;;18.20;49.80
47742;BME280;33504;52.066;6.096;2023-05-09T07:12:40;101323.75;;;18.69;49.35
47742;BME280;33504;52.066;6.096;2023-05-09T07:15:08;101319.31;;;17.97;49.51
47742;BME280;33504;52.066;6.096;2023-05-09T07:17:35;101315.31;;;18.18;49.28
47742;BME280;33504;52.066;6.096;2023-05-09T07:20:03;101317.77;;;18.55;49.22
47742;BME280;33504;52.066;6.096;2023-05-09T07:22:30;101318.07;;;18.38;49.55
47742;BME280;33504;52.066;6.096;2023-05-09T07:24:57;101312.78;;;18.48;48.98
47742;BME280;33504;52.066;6.096;2023-05-09T07:27:24;101308.49;;;18.66;49.17
47742;BME280;33504;52.066;6.096;2023-05-09T07:29:51;101308.79;;;18.52;49.14
47742;BME280;33504;52.066;6.096;2023-05-09T07:32:18;101311.41;;;18.14;50.25
47742;BME280;33504;52.066;6.096;2023-05-09T07:34:45;101308.85;;;18.41;48.97
47742;BME280;33504;52.066;6.096;2023-05-09T07:37:12;101309.36;;;18.88;48.36
47742;BME280;33504;52.066;6.096;2023-05-09T07:39:39;101307.67;;;18.74;48.54
47742;BME280;33504;52.066;6.096;2023-05-09T07:42:07;101308.43;;;18.34;49.05
47742;BME280;33504;52.066;6.096;2023-05-09T07:44:34;101302.39;;;18.15;49.47
47742;BME280;33504;52.066;6.096;2023-05-09T07:47:01;101301.17;;;18.16;49.27
47742;BME280;33504;52.066;6.096;2023-05-09T07:49:28;101296.61;;;17.94;49.68
47742;BME280;33504;52.066;6.096;2023-05-09T07:51:55;101290.58;;;18.61;48.88
47742;BME280;33504;52.066;6.096;2023-05-09T07:54:22;101292.47;;;18.24;48.64
47742;BME280;33504;52.066;6.096;2023-05-09T07:56:49;101289.36;;;18.23;48.81
47742;BME280;33504;52.066;6.096;2023-05-09T07:59:16;101284.90;;;18.89;48.78
47742;BME280;33504;52.066;6.096;2023-05-09T08:01:43;101278.92;;;18.96;48.35
47742;BME280;33504;52.066;6.096;2023-05-09T08:04:10;101273.90;;;19.16;48.24
47742;BME280;33504;52.066;6.096;2023-05-09T08:06:37;101271.44;;;18.75;48.34
47742;BME280;33504;52.066;6.096;2023-05-09T08:09:04;101265.31;;;18.95;47.69
47742;BME280;33504;52.066;6.096;2023-05-09T08:11:32;101259.99;;;19.09;47.76
47742;BME280;33504;52.066;6.096;2023-05-09T08:13:59;101254.05;;;18.87;47.65
47742;BME280;33504;52.066;6.096;2023-05-09T08:16:27;101249.13;;;19.34;47.37
47742;BME280;33504;52.066;6.096;2023-05-09T08:18:54;101245.87;;;19.33;47.92
47742;BME280;33504;52.066;6.096;2023-05-09T08:21:21;101242.75;;;19.60;47.06
47742;BME280;33504;52.066;6.096;2023-05-09T08:23:47;101241.36;;;19.17;46.80
47742;BME280;33504;52.066;6.096;2023-05-09T08:26:15;101240.51;;;19.08;47.03
47742;BME280;33504;52.066;6.096;2023-05-09T08:28:41;101229.73;;;19.44;46.31
47742;BME280;33504;52.066;6.096;2023-05-09T08:31:08;101228.74;;;19.20;46.35
47742;BME280;33504;52.066;6.096;2023-05-09T08:33:35;101232.18;;;19.15;47.78
47742;BME280;33504;52.066;6.096;2023-05-09T08:36:03;101236.53;;;19.14;46.91
47742;BME280;33504;52.066;6.096;2023-05-09T08:38:30;101236.56;;;18.67;48.30
47742;BME280;33504;52.066;6.096;2023-05-09T08:41:01;101232.65;;;18.64;47.74
47742;BME280;33504;52.066;6.096;2023-05-09T08:43:28;101230.42;;;18.89;47.76
47742;BME280;33504;52.066;6.096;2023-05-09T08:45:58;101225.82;;;19.31;47.50
47742;BME280;33504;52.066;6.096;2023-05-09T08:48:27;101221.99;;;19.82;46.27
47742;BME280;33504;52.066;6.096;2023-05-09T08:50:54;101220.55;;;19.40;46.22
47742;BME280;33504;52.066;6.096;2023-05-09T08:53:21;101217.91;;;18.92;47.08
47742;BME280;33504;52.066;6.096;2023-05-09T08:55:49;101218.66;;;18.63;47.69
47742;BME280;33504;52.066;6.096;2023-05-09T08:58:18;101211.53;;;18.94;47.91
47742;BME280;33504;52.066;6.096;2023-05-09T09:00:45;101211.88;;;18.93;47.46
47742;BME280;33504;52.066;6.096;2023-05-09T09:03:13;101211.97;;;19.27;47.18
47742;BME280;33504;52.066;6.096;2023-05-09T09:05:41;101209.61;;;19.51;46.45
47742;BME280;33504;52.066;6.096;2023-05-09T09:08:09;101204.21;;;19.38;45.76
47742;BME280;33504;52.066;6.096;2023-05-09T09:10:39;101197.83;;;19.61;46.03
47742;BME280;33504;52.066;6.096;2023-05-09T09:13:07;101197.92;;;19.57;46.61
47742;BME280;33504;52.066;6.096;2023-05-09T09:15:36;101192.22;;;19.33;46.74
47742;BME280;33504;52.066;6.096;2023-05-09T09:18:06;101191.87;;;19.76;46.05
47742;BME280;33504;52.066;6.096;2023-05-09T09:20:35;101191.92;;;19.61;45.77
47742;BME280;33504;52.066;6.096;2023-05-09T09:23:03;101193.92;;;19.45;46.95
47742;BME280;33504;52.066;6.096;2023-05-09T09:25:34;101187.08;;;19.62;45.98
47742;BME280;33504;52.066;6.096;2023-05-09T09:28:01;101184.51;;;19.96;45.99
47742;BME280;33504;52.066;6.096;2023-05-09T09:30:28;101187.92;;;20.04;45.67
47742;BME280;33504;52.066;6.096;2023-05-09T09:32:57;101183.23;;;19.66;45.77
47742;BME280;33504;52.066;6.096;2023-05-09T09:35:25;101182.92;;;19.33;46.47
47742;BME280;33504;52.066;6.096;2023-05-09T09:37:56;101180.51;;;19.47;46.68
47742;BME280;33504;52.066;6.096;2023-05-09T09:40:24;101174.01;;;19.68;46.03
47742;BME280;33504;52.066;6.096;2023-05-09T09:42:51;101167.98;;;19.85;45.68
47742;BME280;33504;52.066;6.096;2023-05-09T09:45:18;101167.94;;;19.69;46.06
47742;BME280;33504;52.066;6.096;2023-05-09T09:47:47;101168.90;;;19.81;46.21
47742;BME280;33504;52.066;6.096;2023-05-09T09:50:16;101163.61;;;20.13;45.48
47742;BME280;33504;52.066;6.096;2023-05-09T09:52:48;101167.28;;;20.48;45.15
47742;BME280;33504;52.066;6.096;2023-05-09T09:55:16;101162.36;;;20.28;45.06
47742;BME280;33504;52.066;6.096;2023-05-09T09:57:44;101160.29;;;20.40;45.05
47742;BME280;33504;52.066;6.096;2023-05-09T10:00:13;101161.22;;;19.84;44.70
47742;BME280;33504;52.066;6.096;2023-05-09T10:02:49;101160.70;;;19.94;45.33
47742;BME280;33504;52.066;6.096;2023-05-09T10:05:21;101157.64;;;19.46;46.17
47742;BME280;33504;52.066;6.096;2023-05-09T10:07:53;101159.89;;;19.45;46.15
47742;BME280;33504;52.066;6.096;2023-05-09T10:10:20;101156.75;;;19.65;46.06
47742;BME280;33504;52.066;6.096;2023-05-09T10:12:49;101154.76;;;19.87;45.93
47742;BME280;33504;52.066;6.096;2023-05-09T10:15:17;101154.85;;;20.13;45.53
47742;BME280;33504;52.066;6.096;2023-05-09T10:17:44;101156.20;;;20.02;45.39
47742;BME280;33504;52.066;6.096;2023-05-09T10:20:12;101152.79;;;20.28;44.51
47742;BME280;33504;52.066;6.096;2023-05-09T10:22:39;101149.67;;;20.00;44.47
47742;BME280;33504;52.066;6.096;2023-05-09T10:25:12;101146.09;;;20.49;43.76
47742;BME280;33504;52.066;6.096;2023-05-09T10:27:44;101140.88;;;20.28;43.96
47742;BME280;33504;52.066;6.096;2023-05-09T10:30:16;101136.27;;;20.26;43.44
47742;BME280;33504;52.066;6.096;2023-05-09T10:32:47;101133.21;;;20.43;43.36
47742;BME280;33504;52.066;6.096;2023-05-09T10:35:19;101129.37;;;20.37;42.44
47742;BME280;33504;52.066;6.096;2023-05-09T10:37:48;101120.17;;;20.57;42.23
47742;BME280;33504;52.066;6.096;2023-05-09T10:40:17;101117.18;;;20.77;42.37
47742;BME280;33504;52.066;6.096;2023-05-09T10:42:45;101113.16;;;20.77;42.17
47742;BME280;33504;52.066;6.096;2023-05-09T10:45:13;101114.64;;;20.54;42.37
47742;BME280;33504;52.066;6.096;2023-05-09T10:47:42;101114.71;;;20.70;42.75
47742;BME280;33504;52.066;6.096;2023-05-09T10:50:11;101110.98;;;20.68;42.17
47742;BME280;33504;52.066;6.096;2023-05-09T10:53:10;101107.14;;;21.77;41.93
47742;BME280;33504;52.066;6.096;2023-05-09T10:55:48;101104.79;;;21.05;42.48
47742;BME280;33504;52.066;6.096;2023-05-09T10:58:19;101103.69;;;21.42;41.92
47742;BME280;33504;52.066;6.096;2023-05-09T11:00:47;101101.01;;;21.16;42.08
47742;BME280;33504;52.066;6.096;2023-05-09T11:03:15;101094.10;;;21.08;41.46
47742;BME280;33504;52.066;6.096;2023-05-09T11:05:42;101093.02;;;21.35;42.00
47742;BME280;33504;52.066;6.096;2023-05-09T11:08:26;101095.89;;;21.50;41.74
47742;BME280;33504;52.066;6.096;2023-05-09T11:10:54;101097.05;;;21.53;42.71
47742;BME280;33504;52.066;6.096;2023-05-09T11:13:23;101095.19;;;21.68;42.32
47742;BME280;33504;52.066;6.096;2023-05-09T11:16:10;101090.06;;;21.16;42.04
47742;BME280;33504;52.066;6.096;2023-05-09T11:18:50;101091.60;;;21.17;41.84
47742;BME280;33504;52.066;6.096;2023-05-09T11:21:18;101085.68;;;20.88;41.87
47742;BME280;33504;52.066;6.096;2023-05-09T11:23:46;101085.12;;;20.54;43.26
47742;BME280;33504;52.066;6.096;2023-05-09T11:26:14;101082.38;;;20.17;44.12
47742;BME280;33504;52.066;6.096;2023-05-09T11:28:41;101080.57;;;20.39;44.59
47742;BME280;33504;52.066;6.096;2023-05-09T11:31:17;101080.75;;;20.25;44.27
47742;BME280;33504;52.066;6.096;2023-05-09T11:33:47;101082.65;;;20.30;45.50
47742;BME280;33504;52.066;6.096;2023-05-09T11:36:18;101078.51;;;20.65;45.21
47742;BME280;33504;52.066;6.096;2023-05-09T11:38:46;101076.19;;;20.56;45.42
47742;BME280;33504;52.066;6.096;2023-05-09T11:41:13;101079.32;;;20.11;46.34
47742;BME280;33504;52.066;6.096;2023-05-09T11:43:42;101078.81;;;20.17;45.89
47742;BME280;33504;52.066;6.096;2023-05-09T11:46:09;101082.36;;;20.24;46.05
47742;BME280;33504;52.066;6.096;2023-05-09T11:48:37;101081.36;;;20.12;46.35
47742;BME280;33504;52.066;6.096;2023-05-09T11:51:04;101079.99;;;20.29;46.26
47742;BME280;33504;52.066;6.096;2023-05-09T11:53:31;101077.80;;;19.51;47.77
47742;BME280;33504;52.066;6.096;2023-05-09T11:56:02;101074.47;;;19.85;47.42
47742;BME280;33504;52.066;6.096;2023-05-09T11:58:29;101072.28;;;19.87;47.31
47742;BME280;33504;52.066;6.096;2023-05-09T12:00:56;101068.99;;;19.40;47.99
47742;BME280;33504;52.066;6.096;2023-05-09T12:03:23;101065.10;;;19.80;47.92
47742;BME280;33504;52.066;6.096;2023-05-09T12:05:51;101065.76;;;19.48;48.09
47742;BME280;33504;52.066;6.096;2023-05-09T12:08:20;101058.92;;;19.37;48.04
47742;BME280;33504;52.066;6.096;2023-05-09T12:10:47;101053.40;;;19.38;48.43
47742;BME280;33504;52.066;6.096;2023-05-09T12:13:14;101054.89;;;19.54;48.13
47742;BME280;33504;52.066;6.096;2023-05-09T12:15:41;101054.83;;;18.97;48.42
47742;BME280;33504;52.066;6.096;2023-05-09T12:18:08;101048.48;;;19.01;48.63
47742;BME280;33504;52.066;6.096;2023-05-09T12:20:44;101047.49;;;19.40;48.67
47742;BME280;33504;52.066;6.096;2023-05-09T12:23:12;101053.57;;;18.94;48.77
47742;BME280;33504;52.066;6.096;2023-05-09T12:25:39;101052.62;;;19.10;48.86
47742;BME280;33504;52.066;6.096;2023-05-09T12:28:06;101048.12;;;18.88;48.48
47742;BME280;33504;52.066;6.096;2023-05-09T12:30:33;101042.27;;;18.69;49.06
47742;BME280;33504;52.066;6.096;2023-05-09T12:33:01;101043.49;;;18.78;49.48
47742;BME280;33504;52.066;6.096;2023-05-09T12:35:28;101040.67;;;18.59;48.93
47742;BME280;33504;52.066;6.096;2023-05-09T12:37:57;101041.54;;;18.68;48.72
47742;BME280;33504;52.066;6.096;2023-05-09T12:40:24;101034.18;;;18.20;49.39
47742;BME280;33504;52.066;6.096;2023-05-09T12:42:52;101035.98;;;18.79;49.76
47742;BME280;33504;52.066;6.096;2023-05-09T12:45:19;101030.79;;;18.81;49.04
47742;BME280;33504;52.066;6.096;2023-05-09T12:47:50;101032.94;;;18.88;49.27
47742;BME280;33504;52.066;6.096;2023-05-09T12:50:17;101027.30;;;18.86;48.87
47742;BME280;33504;52.066;6.096;2023-05-09T12:52:49;101025.53;;;18.75;49.20
47742;BME280;33504;52.066;6.096;2023-05-09T12:55:18;101020.05;;;18.55;49.80